sensor_id;sensor_type;location;lat;lon;timestamp;temperature;humidity
23520;DHT22;11936;50.820;4.336;2022-11-20T00:00:46;7.10;99.90
23520;DHT22;11936;50.820;4.336;2022-11-20T00:03:12;7.00;99.90
23520;DHT22;11936;50.820;4.336;2022-11-20T00:05:38;7.00;99.90
23520;DHT22;11936;50.820;4.336;2022-11-20T00:08:04;7.00;99.90
23520;DHT22;11936;50.820;4.336;2022-11-20T00:10:29;7.10;99.90
23520;DHT22;11936;50.820;4.336;2022-11-20T00:12:55;7.20;99.90
23520;DHT22;11936;50.820;4.336;2022-11-20T00:15:20;7.00;99.90
23520;DHT22;11936;50.820;4.336;2022-11-20T00:17:46;7.10;99.90
23520;DHT22;11936;50.820;4.336;2022-11-20T00:20:12;7.20;99.90
23520;DHT22;11936;50.820;4.336;2022-11-20T00:22:38;6.90;99.90
23520;DHT22;11936;50.820;4.336;2022-11-20T00:25:04;6.80;99.90
23520;DHT22;11936;50.820;4.336;2022-11-20T00:27:29;6.80;99.90
23520;DHT22;11936;50.820;4.336;2022-11-20T00:29:55;6.60;99.90
23520;DHT22;11936;50.820;4.336;2022-11-20T00:32:21;6.70;99.90
23520;DHT22;11936;50.820;4.336;2022-11-20T00:34:46;6.90;99.90
23520;DHT22;11936;50.820;4.336;2022-11-20T00:37:12;6.90;99.90
23520;DHT22;11936;50.820;4.336;2022-11-20T00:39:37;7.00;99.90
23520;DHT22;11936;50.820;4.336;2022-11-20T00:42:03;7.10;99.90
23520;DHT22;11936;50.820;4.336;2022-11-20T00:44:28;7.20;99.90
23520;DHT22;11936;50.820;4.336;2022-11-20T00:46:54;7.20;99.90
23520;DHT22;11936;50.820;4.336;2022-11-20T00:49:20;7.20;99.90
23520;DHT22;11936;50.820;4.336;2022-11-20T00:51:45;7.30;99.90
23520;DHT22;11936;50.820;4.336;2022-11-20T00:54:11;7.20;99.90
23520;DHT22;11936;50.820;4.336;2022-11-20T00:56:36;7.20;99.90
23520;DHT22;11936;50.820;4.336;2022-11-20T00:59:02;7.20;99.90
23520;DHT22;11936;50.820;4.336;2022-11-20T01:01:28;7.10;99.90
23520;DHT22;11936;50.820;4.336;2022-11-20T01:03:57;7.10;99.90
23520;DHT22;11936;50.820;4.336;2022-11-20T01:06:37;7.20;99.90
23520;DHT22;11936;50.820;4.336;2022-11-20T01:09:10;7.20;99.90
23520;DHT22;11936;50.820;4.336;2022-11-20T01:11:38;7.20;99.90
23520;DHT22;11936;50.820;4.336;2022-11-20T01:14:07;7.20;99.90
23520;DHT22;11936;50.820;4.336;2022-11-20T01:16:37;7.20;99.90
23520;DHT22;11936;50.820;4.336;2022-11-20T01:19:06;7.20;99.90
23520;DHT22;11936;50.820;4.336;2022-11-20T01:21:38;7.20;99.90
23520;DHT22;11936;50.820;4.336;2022-11-20T01:24:05;7.20;99.90
23520;DHT22;11936;50.820;4.336;2022-11-20T01:26:35;7.30;99.90
23520;DHT22;11936;50.820;4.336;2022-11-20T01:29:01;7.20;99.90
23520;DHT22;11936;50.820;4.336;2022-11-20T01:31:33;7.30;99.90
23520;DHT22;11936;50.820;4.336;2022-11-20T01:34:04;7.30;99.90
23520;DHT22;11936;50.820;4.336;2022-11-20T01:36:32;7.20;99.90
23520;DHT22;11936;50.820;4.336;2022-11-20T01:39:00;7.20;99.90
23520;DHT22;11936;50.820;4.336;2022-11-20T01:41:29;7.30;99.90
23520;DHT22;11936;50.820;4.336;2022-11-20T01:44:16;7.30;99.90
23520;DHT22;11936;50.820;4.336;2022-11-20T01:49:40;7.50;99.90
23520;DHT22;11936;50.820;4.336;2022-11-20T01:52:20;7.70;99.90
23520;DHT22;11936;50.820;4.336;2022-11-20T01:55:17;7.70;99.90
23520;DHT22;11936;50.820;4.336;2022-11-20T01:57:45;7.70;99.90
23520;DHT22;11936;50.820;4.336;2022-11-20T02:00:14;7.70;99.90
23520;DHT22;11936;50.820;4.336;2022-11-20T02:02:50;7.70;99.90
23520;DHT22;11936;50.820;4.336;2022-11-20T02:07:46;7.70;99.90
23520;DHT22;11936;50.820;4.336;2022-11-20T02:10:13;7.60;99.90
23520;DHT22;11936;50.820;4.336;2022-11-20T02:12:39;7.60;99.90
23520;DHT22;11936;50.820;4.336;2022-11-20T02:15:23;7.60;99.90
23520;DHT22;11936;50.820;4.336;2022-11-20T02:17:49;7.70;99.90
23520;DHT22;11936;50.820;4.336;2022-11-20T02:20:15;7.70;99.90
23520;DHT22;11936;50.820;4.336;2022-11-20T02:22:57;7.70;99.90
23520;DHT22;11936;50.820;4.336;2022-11-20T02:25:25;7.50;99.90
23520;DHT22;11936;50.820;4.336;2022-11-20T02:27:51;7.30;99.90
23520;DHT22;11936;50.820;4.336;2022-11-20T02:30:17;7.20;99.90
23520;DHT22;11936;50.820;4.336;2022-11-20T02:32:43;7.20;99.90
23520;DHT22;11936;50.820;4.336;2022-11-20T02:35:38;7.20;99.90
23520;DHT22;11936;50.820;4.336;2022-11-20T02:37:58;7.10;99.90
23520;DHT22;11936;50.820;4.336;2022-11-20T02:40:24;7.00;99.90
23520;DHT22;11936;50.820;4.336;2022-11-20T02:42:54;7.00;99.90
23520;DHT22;11936;50.820;4.336;2022-11-20T02:45:20;7.10;99.90
23520;DHT22;11936;50.820;4.336;2022-11-20T02:47:46;7.20;99.90
23520;DHT22;11936;50.820;4.336;2022-11-20T02:50:12;7.20;99.90
23520;DHT22;11936;50.820;4.336;2022-11-20T02:52:37;7.10;99.90
23520;DHT22;11936;50.820;4.336;2022-11-20T02:55:03;7.10;99.90
23520;DHT22;11936;50.820;4.336;2022-11-20T02:57:29;7.00;99.90
23520;DHT22;11936;50.820;4.336;2022-11-20T02:59:55;7.00;99.90
23520;DHT22;11936;50.820;4.336;2022-11-20T03:02:21;7.10;99.90
23520;DHT22;11936;50.820;4.336;2022-11-20T03:04:47;7.10;99.90
23520;DHT22;11936;50.820;4.336;2022-11-20T03:07:13;7.20;99.90
23520;DHT22;11936;50.820;4.336;2022-11-20T03:09:39;7.10;99.90
23520;DHT22;11936;50.820;4.336;2022-11-20T03:12:05;7.10;99.90
23520;DHT22;11936;50.820;4.336;2022-11-20T03:14:30;7.20;99.90
23520;DHT22;11936;50.820;4.336;2022-11-20T03:16:56;7.30;99.90
23520;DHT22;11936;50.820;4.336;2022-11-20T03:19:22;7.30;99.90
23520;DHT22;11936;50.820;4.336;2022-11-20T03:21:47;7.30;99.90
23520;DHT22;11936;50.820;4.336;2022-11-20T03:24:13;7.30;99.90
23520;DHT22;11936;50.820;4.336;2022-11-20T03:26:39;7.20;99.90
23520;DHT22;11936;50.820;4.336;2022-11-20T03:29:05;7.30;99.90
23520;DHT22;11936;50.820;4.336;2022-11-20T03:31:34;7.40;99.90
23520;DHT22;11936;50.820;4.336;2022-11-20T03:34:00;7.40;99.90
23520;DHT22;11936;50.820;4.336;2022-11-20T03:36:27;7.40;99.90
23520;DHT22;11936;50.820;4.336;2022-11-20T03:38:57;7.30;99.90
23520;DHT22;11936;50.820;4.336;2022-11-20T03:41:28;7.30;99.90
23520;DHT22;11936;50.820;4.336;2022-11-20T03:43:56;7.30;99.90
23520;DHT22;11936;50.820;4.336;2022-11-20T03:46:22;7.20;99.90
23520;DHT22;11936;50.820;4.336;2022-11-20T03:48:49;7.20;99.90
23520;DHT22;11936;50.820;4.336;2022-11-20T03:51:17;7.30;99.90
23520;DHT22;11936;50.820;4.336;2022-11-20T03:53:45;7.30;99.90
23520;DHT22;11936;50.820;4.336;2022-11-20T03:56:13;7.30;99.90
23520;DHT22;11936;50.820;4.336;2022-11-20T03:58:40;7.30;99.90
23520;DHT22;11936;50.820;4.336;2022-11-20T04:03:32;7.30;99.90
23520;DHT22;11936;50.820;4.336;2022-11-20T04:06:21;7.30;99.90
23520;DHT22;11936;50.820;4.336;2022-11-20T04:08:47;7.40;99.90
23520;DHT22;11936;50.820;4.336;2022-11-20T04:11:24;7.30;99.90
23520;DHT22;11936;50.820;4.336;2022-11-20T04:13:52;7.40;99.90
23520;DHT22;11936;50.820;4.336;2022-11-20T04:16:19;7.30;99.90
23520;DHT22;11936;50.820;4.336;2022-11-20T04:18:45;7.40;99.90
23520;DHT22;11936;50.820;4.336;2022-11-20T04:21:11;7.30;99.90
23520;DHT22;11936;50.820;4.336;2022-11-20T04:23:37;7.40;99.90
23520;DHT22;11936;50.820;4.336;2022-11-20T04:26:07;7.40;99.90
23520;DHT22;11936;50.820;4.336;2022-11-20T04:28:33;7.30;99.90
23520;DHT22;11936;50.820;4.336;2022-11-20T04:31:07;7.40;99.90
23520;DHT22;11936;50.820;4.336;2022-11-20T04:33:34;7.40;99.90
23520;DHT22;11936;50.820;4.336;2022-11-20T04:36:05;7.40;99.90
23520;DHT22;11936;50.820;4.336;2022-11-20T04:38:31;7.40;99.90
23520;DHT22;11936;50.820;4.336;2022-11-20T04:40:58;7.30;99.90
23520;DHT22;11936;50.820;4.336;2022-11-20T04:43:24;7.40;99.90
23520;DHT22;11936;50.820;4.336;2022-11-20T04:45:54;7.50;99.90
23520;DHT22;11936;50.820;4.336;2022-11-20T04:48:21;7.50;99.90
23520;DHT22;11936;50.820;4.336;2022-11-20T04:50:46;7.20;99.90
23520;DHT22;11936;50.820;4.336;2022-11-20T04:53:12;7.20;99.90
23520;DHT22;11936;50.820;4.336;2022-11-20T04:55:38;7.30;99.90
23520;DHT22;11936;50.820;4.336;2022-11-20T04:58:03;7.30;99.90
23520;DHT22;11936;50.820;4.336;2022-11-20T05:00:29;7.40;99.90
23520;DHT22;11936;50.820;4.336;2022-11-20T05:02:54;7.50;99.90
23520;DHT22;11936;50.820;4.336;2022-11-20T05:05:20;7.70;99.90
23520;DHT22;11936;50.820;4.336;2022-11-20T05:07:46;7.70;99.90
23520;DHT22;11936;50.820;4.336;2022-11-20T05:10:11;7.60;99.90
23520;DHT22;11936;50.820;4.336;2022-11-20T05:12:37;7.70;99.90
23520;DHT22;11936;50.820;4.336;2022-11-20T05:15:03;7.60;99.90
23520;DHT22;11936;50.820;4.336;2022-11-20T05:17:28;7.60;99.90
23520;DHT22;11936;50.820;4.336;2022-11-20T05:19:54;7.70;99.90
23520;DHT22;11936;50.820;4.336;2022-11-20T05:22:19;7.70;99.90
23520;DHT22;11936;50.820;4.336;2022-11-20T05:24:45;7.80;99.90
23520;DHT22;11936;50.820;4.336;2022-11-20T05:27:11;7.80;99.90
23520;DHT22;11936;50.820;4.336;2022-11-20T05:29:36;7.70;99.90
23520;DHT22;11936;50.820;4.336;2022-11-20T05:32:02;7.90;99.90
23520;DHT22;11936;50.820;4.336;2022-11-20T05:34:28;7.80;99.90
23520;DHT22;11936;50.820;4.336;2022-11-20T05:36:53;7.90;99.90
23520;DHT22;11936;50.820;4.336;2022-11-20T05:39:19;7.90;99.90
23520;DHT22;11936;50.820;4.336;2022-11-20T05:41:44;7.80;99.90
23520;DHT22;11936;50.820;4.336;2022-11-20T05:44:11;7.80;99.90
23520;DHT22;11936;50.820;4.336;2022-11-20T05:46:36;7.60;99.90
23520;DHT22;11936;50.820;4.336;2022-11-20T05:49:02;7.60;99.90
23520;DHT22;11936;50.820;4.336;2022-11-20T05:51:28;7.50;99.90
23520;DHT22;11936;50.820;4.336;2022-11-20T05:53:55;7.50;99.90
23520;DHT22;11936;50.820;4.336;2022-11-20T05:56:21;7.50;99.90
23520;DHT22;11936;50.820;4.336;2022-11-20T05:58:48;7.60;99.90
23520;DHT22;11936;50.820;4.336;2022-11-20T06:01:17;7.60;99.90
23520;DHT22;11936;50.820;4.336;2022-11-20T06:03:44;7.60;99.90
23520;DHT22;11936;50.820;4.336;2022-11-20T06:06:13;7.60;99.90
23520;DHT22;11936;50.820;4.336;2022-11-20T06:08:39;7.60;99.90
23520;DHT22;11936;50.820;4.336;2022-11-20T06:11:06;7.60;99.90
23520;DHT22;11936;50.820;4.336;2022-11-20T06:13:32;7.70;99.90
23520;DHT22;11936;50.820;4.336;2022-11-20T06:15:57;7.70;99.90
23520;DHT22;11936;50.820;4.336;2022-11-20T06:18:23;7.80;99.90
23520;DHT22;11936;50.820;4.336;2022-11-20T06:20:48;7.80;99.90
23520;DHT22;11936;50.820;4.336;2022-11-20T06:23:14;7.60;99.90
23520;DHT22;11936;50.820;4.336;2022-11-20T06:25:40;7.70;99.90
23520;DHT22;11936;50.820;4.336;2022-11-20T06:28:06;7.70;99.90
23520;DHT22;11936;50.820;4.336;2022-11-20T06:30:33;7.70;99.90
23520;DHT22;11936;50.820;4.336;2022-11-20T06:32:58;7.70;99.90
23520;DHT22;11936;50.820;4.336;2022-11-20T06:35:24;7.80;99.90
23520;DHT22;11936;50.820;4.336;2022-11-20T06:37:49;7.90;99.90
23520;DHT22;11936;50.820;4.336;2022-11-20T06:40:15;7.90;99.90
23520;DHT22;11936;50.820;4.336;2022-11-20T06:42:40;7.90;99.90
23520;DHT22;11936;50.820;4.336;2022-11-20T06:45:07;8.00;99.90
23520;DHT22;11936;50.820;4.336;2022-11-20T06:47:33;8.00;99.90
23520;DHT22;11936;50.820;4.336;2022-11-20T06:49:58;8.00;99.90
23520;DHT22;11936;50.820;4.336;2022-11-20T06:52:24;8.00;99.90
23520;DHT22;11936;50.820;4.336;2022-11-20T06:54:49;8.00;99.90
23520;DHT22;11936;50.820;4.336;2022-11-20T06:57:15;8.00;99.90
23520;DHT22;11936;50.820;4.336;2022-11-20T06:59:41;8.00;99.90
23520;DHT22;11936;50.820;4.336;2022-11-20T07:02:10;7.90;99.90
23520;DHT22;11936;50.820;4.336;2022-11-20T07:04:36;7.90;99.90
23520;DHT22;11936;50.820;4.336;2022-11-20T07:07:01;7.90;99.90
23520;DHT22;11936;50.820;4.336;2022-11-20T07:09:27;7.90;99.90
23520;DHT22;11936;50.820;4.336;2022-11-20T07:11:53;8.00;99.90
23520;DHT22;11936;50.820;4.336;2022-11-20T07:14:18;7.90;99.90
23520;DHT22;11936;50.820;4.336;2022-11-20T07:16:44;8.00;99.90
23520;DHT22;11936;50.820;4.336;2022-11-20T07:19:09;8.00;99.90
23520;DHT22;11936;50.820;4.336;2022-11-20T07:21:35;8.00;99.90
23520;DHT22;11936;50.820;4.336;2022-11-20T07:24:01;8.10;99.90
23520;DHT22;11936;50.820;4.336;2022-11-20T07:26:26;8.00;99.90
23520;DHT22;11936;50.820;4.336;2022-11-20T07:28:52;8.20;99.90
23520;DHT22;11936;50.820;4.336;2022-11-20T07:31:17;8.20;99.90
23520;DHT22;11936;50.820;4.336;2022-11-20T07:33:43;8.20;99.90
23520;DHT22;11936;50.820;4.336;2022-11-20T07:36:09;8.30;99.90
23520;DHT22;11936;50.820;4.336;2022-11-20T07:38:34;8.30;99.90
23520;DHT22;11936;50.820;4.336;2022-11-20T07:41:00;8.40;99.90
23520;DHT22;11936;50.820;4.336;2022-11-20T07:43:28;8.30;99.90
23520;DHT22;11936;50.820;4.336;2022-11-20T07:45:58;8.20;99.90
23520;DHT22;11936;50.820;4.336;2022-11-20T07:48:24;8.20;99.90
23520;DHT22;11936;50.820;4.336;2022-11-20T07:50:53;8.30;99.90
23520;DHT22;11936;50.820;4.336;2022-11-20T07:53:19;8.40;99.90
23520;DHT22;11936;50.820;4.336;2022-11-20T07:55:47;8.50;99.90
23520;DHT22;11936;50.820;4.336;2022-11-20T07:58:12;8.40;99.90
23520;DHT22;11936;50.820;4.336;2022-11-20T08:00:39;8.40;99.90
23520;DHT22;11936;50.820;4.336;2022-11-20T08:03:05;8.50;99.90
23520;DHT22;11936;50.820;4.336;2022-11-20T08:05:31;8.50;99.90
23520;DHT22;11936;50.820;4.336;2022-11-20T08:07:57;8.60;99.90
23520;DHT22;11936;50.820;4.336;2022-11-20T08:10:22;8.60;99.90
23520;DHT22;11936;50.820;4.336;2022-11-20T08:12:50;8.50;99.90
23520;DHT22;11936;50.820;4.336;2022-11-20T08:15:36;8.60;99.90
23520;DHT22;11936;50.820;4.336;2022-11-20T08:18:04;8.60;99.90
23520;DHT22;11936;50.820;4.336;2022-11-20T08:20:31;8.70;99.90
23520;DHT22;11936;50.820;4.336;2022-11-20T08:23:01;8.70;99.90
23520;DHT22;11936;50.820;4.336;2022-11-20T08:25:28;8.60;99.90
23520;DHT22;11936;50.820;4.336;2022-11-20T08:27:57;8.60;99.90
23520;DHT22;11936;50.820;4.336;2022-11-20T08:30:23;8.50;99.90
23520;DHT22;11936;50.820;4.336;2022-11-20T08:32:49;8.70;99.90
23520;DHT22;11936;50.820;4.336;2022-11-20T08:35:14;8.80;99.90
23520;DHT22;11936;50.820;4.336;2022-11-20T08:37:40;8.60;99.90
23520;DHT22;11936;50.820;4.336;2022-11-20T08:40:09;8.60;99.90
23520;DHT22;11936;50.820;4.336;2022-11-20T08:42:35;8.70;99.90
23520;DHT22;11936;50.820;4.336;2022-11-20T08:45:01;8.80;99.90
23520;DHT22;11936;50.820;4.336;2022-11-20T08:47:27;8.80;99.90
23520;DHT22;11936;50.820;4.336;2022-11-20T08:49:52;8.80;99.90
23520;DHT22;11936;50.820;4.336;2022-11-20T08:52:18;8.80;99.90
23520;DHT22;11936;50.820;4.336;2022-11-20T08:54:43;8.70;99.90
23520;DHT22;11936;50.820;4.336;2022-11-20T08:57:09;8.80;99.90
23520;DHT22;11936;50.820;4.336;2022-11-20T08:59:34;8.80;99.90
23520;DHT22;11936;50.820;4.336;2022-11-20T09:02:00;8.90;99.90
23520;DHT22;11936;50.820;4.336;2022-11-20T09:04:26;9.00;99.90
23520;DHT22;11936;50.820;4.336;2022-11-20T09:06:51;9.00;99.90
23520;DHT22;11936;50.820;4.336;2022-11-20T09:09:17;9.00;99.90
23520;DHT22;11936;50.820;4.336;2022-11-20T09:11:44;9.20;99.90
23520;DHT22;11936;50.820;4.336;2022-11-20T09:14:10;9.10;99.90
23520;DHT22;11936;50.820;4.336;2022-11-20T09:16:35;9.00;99.90
23520;DHT22;11936;50.820;4.336;2022-11-20T09:19:01;9.10;99.90
23520;DHT22;11936;50.820;4.336;2022-11-20T09:21:27;9.20;99.90
23520;DHT22;11936;50.820;4.336;2022-11-20T09:23:52;9.20;99.90
23520;DHT22;11936;50.820;4.336;2022-11-20T09:26:18;9.20;99.90
23520;DHT22;11936;50.820;4.336;2022-11-20T09:28:44;9.20;99.90
23520;DHT22;11936;50.820;4.336;2022-11-20T09:31:36;9.20;99.90
23520;DHT22;11936;50.820;4.336;2022-11-20T09:34:02;9.10;99.90
23520;DHT22;11936;50.820;4.336;2022-11-20T09:36:28;9.10;99.90
23520;DHT22;11936;50.820;4.336;2022-11-20T09:38:53;9.20;99.90
23520;DHT22;11936;50.820;4.336;2022-11-20T09:55:40;9.50;99.90
23520;DHT22;11936;50.820;4.336;2022-11-20T09:58:07;9.50;99.90
23520;DHT22;11936;50.820;4.336;2022-11-20T10:00:37;9.50;99.90
23520;DHT22;11936;50.820;4.336;2022-11-20T10:03:14;9.60;99.90
23520;DHT22;11936;50.820;4.336;2022-11-20T10:05:47;9.70;99.90
23520;DHT22;11936;50.820;4.336;2022-11-20T10:10:54;9.90;99.90
23520;DHT22;11936;50.820;4.336;2022-11-20T10:16:48;9.60;99.90
23520;DHT22;11936;50.820;4.336;2022-11-20T10:24:55;10.00;99.90
23520;DHT22;11936;50.820;4.336;2022-11-20T10:27:43;9.90;99.90
23520;DHT22;11936;50.820;4.336;2022-11-20T10:30:16;10.00;99.90
23520;DHT22;11936;50.820;4.336;2022-11-20T10:32:50;10.10;99.90
23520;DHT22;11936;50.820;4.336;2022-11-20T10:37:46;10.00;99.90
23520;DHT22;11936;50.820;4.336;2022-11-20T10:40:38;10.00;99.90
23520;DHT22;11936;50.820;4.336;2022-11-20T10:43:21;10.10;99.90
23520;DHT22;11936;50.820;4.336;2022-11-20T10:45:58;10.10;99.90
23520;DHT22;11936;50.820;4.336;2022-11-20T10:48:26;10.10;99.90
23520;DHT22;11936;50.820;4.336;2022-11-20T10:56:42;9.90;99.90
23520;DHT22;11936;50.820;4.336;2022-11-20T11:01:48;9.90;99.90
23520;DHT22;11936;50.820;4.336;2022-11-20T11:04:38;9.90;99.90
23520;DHT22;11936;50.820;4.336;2022-11-20T11:07:36;9.90;99.90
23520;DHT22;11936;50.820;4.336;2022-11-20T11:10:32;9.80;99.90
23520;DHT22;11936;50.820;4.336;2022-11-20T11:13:01;9.90;99.90
23520;DHT22;11936;50.820;4.336;2022-11-20T11:15:35;10.00;99.90
23520;DHT22;11936;50.820;4.336;2022-11-20T11:18:01;10.10;99.90
23520;DHT22;11936;50.820;4.336;2022-11-20T11:20:27;10.00;99.90
23520;DHT22;11936;50.820;4.336;2022-11-20T11:22:55;10.00;99.90
23520;DHT22;11936;50.820;4.336;2022-11-20T11:25:30;10.10;99.90
23520;DHT22;11936;50.820;4.336;2022-11-20T11:27:58;10.00;99.90
23520;DHT22;11936;50.820;4.336;2022-11-20T11:30:25;9.90;99.90
23520;DHT22;11936;50.820;4.336;2022-11-20T11:33:03;9.90;99.90
23520;DHT22;11936;50.820;4.336;2022-11-20T11:35:29;10.00;99.90
23520;DHT22;11936;50.820;4.336;2022-11-20T11:38:10;9.90;99.90
23520;DHT22;11936;50.820;4.336;2022-11-20T11:40:39;9.80;99.90
23520;DHT22;11936;50.820;4.336;2022-11-20T11:43:15;9.80;99.90
23520;DHT22;11936;50.820;4.336;2022-11-20T11:46:02;9.70;99.90
23520;DHT22;11936;50.820;4.336;2022-11-20T11:48:27;9.60;99.90
23520;DHT22;11936;50.820;4.336;2022-11-20T11:50:53;9.60;99.90
23520;DHT22;11936;50.820;4.336;2022-11-20T11:53:23;9.80;99.90
23520;DHT22;11936;50.820;4.336;2022-11-20T11:56:08;9.80;99.90
23520;DHT22;11936;50.820;4.336;2022-11-20T11:58:43;9.90;99.90
23520;DHT22;11936;50.820;4.336;2022-11-20T12:01:36;9.90;99.90
23520;DHT22;11936;50.820;4.336;2022-11-20T12:04:05;9.90;99.90
23520;DHT22;11936;50.820;4.336;2022-11-20T12:06:36;9.80;99.90
23520;DHT22;11936;50.820;4.336;2022-11-20T12:09:08;9.70;99.90
23520;DHT22;11936;50.820;4.336;2022-11-20T12:14:43;9.70;99.90
23520;DHT22;11936;50.820;4.336;2022-11-20T12:17:12;9.50;99.90
23520;DHT22;11936;50.820;4.336;2022-11-20T12:19:38;9.40;99.90
23520;DHT22;11936;50.820;4.336;2022-11-20T12:25:25;9.40;99.90
23520;DHT22;11936;50.820;4.336;2022-11-20T12:28:17;9.40;99.90
23520;DHT22;11936;50.820;4.336;2022-11-20T12:36:36;9.30;99.90
23520;DHT22;11936;50.820;4.336;2022-11-20T12:42:24;9.30;99.90
23520;DHT22;11936;50.820;4.336;2022-11-20T12:51:21;9.40;99.90
23520;DHT22;11936;50.820;4.336;2022-11-20T12:57:06;9.60;99.90
23520;DHT22;11936;50.820;4.336;2022-11-20T13:07:59;9.60;99.90
23520;DHT22;11936;50.820;4.336;2022-11-20T13:16:14;9.60;99.90
23520;DHT22;11936;50.820;4.336;2022-11-20T13:18:43;9.60;99.90
23520;DHT22;11936;50.820;4.336;2022-11-20T13:21:19;9.50;99.90
23520;DHT22;11936;50.820;4.336;2022-11-20T13:23:45;9.60;99.90
23520;DHT22;11936;50.820;4.336;2022-11-20T13:26:20;9.70;99.90
23520;DHT22;11936;50.820;4.336;2022-11-20T13:28:59;9.70;99.90
23520;DHT22;11936;50.820;4.336;2022-11-20T13:31:43;9.80;99.90
23520;DHT22;11936;50.820;4.336;2022-11-20T13:34:12;9.80;99.90
23520;DHT22;11936;50.820;4.336;2022-11-20T13:36:52;9.60;99.90
23520;DHT22;11936;50.820;4.336;2022-11-20T13:39:30;9.50;99.90
23520;DHT22;11936;50.820;4.336;2022-11-20T13:42:30;9.60;99.90
23520;DHT22;11936;50.820;4.336;2022-11-20T13:44:54;9.50;99.90
23520;DHT22;11936;50.820;4.336;2022-11-20T13:47:25;9.60;99.90
23520;DHT22;11936;50.820;4.336;2022-11-20T13:49:53;9.60;99.90
23520;DHT22;11936;50.820;4.336;2022-11-20T13:52:55;9.50;99.90
23520;DHT22;11936;50.820;4.336;2022-11-20T13:55:45;9.70;99.90
23520;DHT22;11936;50.820;4.336;2022-11-20T13:58:40;9.80;99.90
23520;DHT22;11936;50.820;4.336;2022-11-20T14:03:44;9.80;99.90
23520;DHT22;11936;50.820;4.336;2022-11-20T14:08:53;9.70;99.90
23520;DHT22;11936;50.820;4.336;2022-11-20T14:11:27;9.60;99.90
23520;DHT22;11936;50.820;4.336;2022-11-20T14:14:14;9.40;99.90
23520;DHT22;11936;50.820;4.336;2022-11-20T14:16:40;9.30;99.90
23520;DHT22;11936;50.820;4.336;2022-11-20T14:19:29;9.30;99.90
23520;DHT22;11936;50.820;4.336;2022-11-20T14:22:19;9.40;99.90
23520;DHT22;11936;50.820;4.336;2022-11-20T14:24:46;9.40;99.90
23520;DHT22;11936;50.820;4.336;2022-11-20T14:27:14;9.30;99.90
23520;DHT22;11936;50.820;4.336;2022-11-20T14:29:40;9.20;99.90
23520;DHT22;11936;50.820;4.336;2022-11-20T14:32:09;9.20;99.90
23520;DHT22;11936;50.820;4.336;2022-11-20T14:34:40;9.20;99.90
23520;DHT22;11936;50.820;4.336;2022-11-20T14:37:11;9.30;99.90
23520;DHT22;11936;50.820;4.336;2022-11-20T14:39:41;9.30;99.90
23520;DHT22;11936;50.820;4.336;2022-11-20T14:42:16;9.40;99.90
23520;DHT22;11936;50.820;4.336;2022-11-20T14:44:42;9.40;99.90
23520;DHT22;11936;50.820;4.336;2022-11-20T14:47:11;9.50;99.90
23520;DHT22;11936;50.820;4.336;2022-11-20T14:49:38;9.40;99.90
23520;DHT22;11936;50.820;4.336;2022-11-20T14:52:17;9.40;99.90
23520;DHT22;11936;50.820;4.336;2022-11-20T14:54:47;9.40;99.90
23520;DHT22;11936;50.820;4.336;2022-11-20T14:59:47;9.40;99.90
23520;DHT22;11936;50.820;4.336;2022-11-20T15:02:12;9.40;99.90
23520;DHT22;11936;50.820;4.336;2022-11-20T15:04:49;9.50;99.90
23520;DHT22;11936;50.820;4.336;2022-11-20T15:07:26;9.50;99.90
23520;DHT22;11936;50.820;4.336;2022-11-20T15:12:30;9.40;99.90
23520;DHT22;11936;50.820;4.336;2022-11-20T15:14:56;9.50;99.90
23520;DHT22;11936;50.820;4.336;2022-11-20T15:17:25;9.50;99.90
23520;DHT22;11936;50.820;4.336;2022-11-20T15:19:51;9.50;99.90
23520;DHT22;11936;50.820;4.336;2022-11-20T15:22:17;9.40;99.90
23520;DHT22;11936;50.820;4.336;2022-11-20T15:24:43;9.50;99.90
23520;DHT22;11936;50.820;4.336;2022-11-20T15:27:09;9.60;99.90
23520;DHT22;11936;50.820;4.336;2022-11-20T15:29:35;9.60;99.90
23520;DHT22;11936;50.820;4.336;2022-11-20T15:32:02;9.50;99.90
23520;DHT22;11936;50.820;4.336;2022-11-20T15:34:28;9.60;99.90
23520;DHT22;11936;50.820;4.336;2022-11-20T15:36:54;9.60;99.90
23520;DHT22;11936;50.820;4.336;2022-11-20T15:39:20;9.60;99.90
23520;DHT22;11936;50.820;4.336;2022-11-20T15:41:46;9.60;99.90
23520;DHT22;11936;50.820;4.336;2022-11-20T15:44:11;9.60;99.90
23520;DHT22;11936;50.820;4.336;2022-11-20T15:46:39;9.70;99.90
23520;DHT22;11936;50.820;4.336;2022-11-20T15:49:12;9.70;99.90
23520;DHT22;11936;50.820;4.336;2022-11-20T15:51:39;9.80;99.90
23520;DHT22;11936;50.820;4.336;2022-11-20T15:54:17;9.90;99.90
23520;DHT22;11936;50.820;4.336;2022-11-20T15:56:45;9.80;99.90
23520;DHT22;11936;50.820;4.336;2022-11-20T15:59:11;9.80;99.90
23520;DHT22;11936;50.820;4.336;2022-11-20T16:01:37;9.90;99.90
23520;DHT22;11936;50.820;4.336;2022-11-20T16:04:05;9.80;99.90
23520;DHT22;11936;50.820;4.336;2022-11-20T16:06:30;9.90;99.90
23520;DHT22;11936;50.820;4.336;2022-11-20T16:08:56;9.80;99.90
23520;DHT22;11936;50.820;4.336;2022-11-20T16:11:22;9.90;99.90
23520;DHT22;11936;50.820;4.336;2022-11-20T16:13:47;10.00;99.90
23520;DHT22;11936;50.820;4.336;2022-11-20T16:16:34;10.00;99.90
23520;DHT22;11936;50.820;4.336;2022-11-20T16:19:00;9.90;99.90
23520;DHT22;11936;50.820;4.336;2022-11-20T16:21:27;10.10;99.90
23520;DHT22;11936;50.820;4.336;2022-11-20T16:23:57;10.10;99.90
23520;DHT22;11936;50.820;4.336;2022-11-20T16:26:23;10.00;99.90
23520;DHT22;11936;50.820;4.336;2022-11-20T16:28:48;10.10;99.90
23520;DHT22;11936;50.820;4.336;2022-11-20T16:31:17;10.10;99.90
23520;DHT22;11936;50.820;4.336;2022-11-20T16:33:42;10.00;99.90
23520;DHT22;11936;50.820;4.336;2022-11-20T16:36:13;10.00;99.90
23520;DHT22;11936;50.820;4.336;2022-11-20T16:38:39;10.10;99.90
23520;DHT22;11936;50.820;4.336;2022-11-20T16:41:05;10.10;99.90
23520;DHT22;11936;50.820;4.336;2022-11-20T16:43:31;10.10;99.90
23520;DHT22;11936;50.820;4.336;2022-11-20T16:45:56;10.00;99.90
23520;DHT22;11936;50.820;4.336;2022-11-20T16:48:22;10.00;99.90
23520;DHT22;11936;50.820;4.336;2022-11-20T16:50:52;9.90;99.90
23520;DHT22;11936;50.820;4.336;2022-11-20T16:53:19;10.00;99.90
23520;DHT22;11936;50.820;4.336;2022-11-20T16:55:45;10.00;99.90
23520;DHT22;11936;50.820;4.336;2022-11-20T16:58:11;10.00;99.90
23520;DHT22;11936;50.820;4.336;2022-11-20T17:00:37;10.00;99.90
23520;DHT22;11936;50.820;4.336;2022-11-20T17:03:04;10.00;99.90
23520;DHT22;11936;50.820;4.336;2022-11-20T17:05:31;10.00;99.90
23520;DHT22;11936;50.820;4.336;2022-11-20T17:07:57;10.00;99.90
23520;DHT22;11936;50.820;4.336;2022-11-20T17:10:22;10.00;99.90
23520;DHT22;11936;50.820;4.336;2022-11-20T17:12:48;10.00;99.90
23520;DHT22;11936;50.820;4.336;2022-11-20T17:15:13;10.00;99.90
23520;DHT22;11936;50.820;4.336;2022-11-20T17:17:39;10.00;99.90
23520;DHT22;11936;50.820;4.336;2022-11-20T17:20:05;9.90;99.90
23520;DHT22;11936;50.820;4.336;2022-11-20T17:22:31;9.90;99.90
23520;DHT22;11936;50.820;4.336;2022-11-20T17:24:57;9.80;99.90
23520;DHT22;11936;50.820;4.336;2022-11-20T17:27:22;9.80;99.90
23520;DHT22;11936;50.820;4.336;2022-11-20T17:29:48;9.90;99.90